sensor_id;sensor_type;location;lat;lon;timestamp;P1;durP1;ratioP1;P2;durP2;ratioP2
31818;SDS011;18384;48.860;9.188;2022-09-16T00:00:21;6.22;;;3.55;;
31818;SDS011;18384;48.860;9.188;2022-09-16T00:02:50;8.73;;;4.07;;
31818;SDS011;18384;48.860;9.188;2022-09-16T00:05:17;7.72;;;4.30;;
31818;SDS011;18384;48.860;9.188;2022-09-16T00:07:43;7.28;;;3.42;;
31818;SDS011;18384;48.860;9.188;2022-09-16T00:10:10;9.23;;;3.33;;
31818;SDS011;18384;48.860;9.188;2022-09-16T00:12:37;8.73;;;3.53;;
31818;SDS011;18384;48.860;9.188;2022-09-16T00:15:04;7.47;;;3.60;;
31818;SDS011;18384;48.860;9.188;2022-09-16T00:17:31;5.53;;;3.25;;
31818;SDS011;18384;48.860;9.188;2022-09-16T00:19:58;8.00;;;3.58;;
31818;SDS011;18384;48.860;9.188;2022-09-16T00:22:26;7.97;;;3.87;;
31818;SDS011;18384;48.860;9.188;2022-09-16T00:24:53;8.80;;;3.90;;
31818;SDS011;18384;48.860;9.188;2022-09-16T00:27:19;11.12;;;4.10;;
31818;SDS011;18384;48.860;9.188;2022-09-16T00:29:45;8.88;;;4.20;;
31818;SDS011;18384;48.860;9.188;2022-09-16T00:32:11;7.22;;;3.97;;
31818;SDS011;18384;48.860;9.188;2022-09-16T00:34:37;7.05;;;3.55;;
31818;SDS011;18384;48.860;9.188;2022-09-16T00:37:04;12.00;;;3.75;;
31818;SDS011;18384;48.860;9.188;2022-09-16T00:39:33;7.25;;;4.05;;
31818;SDS011;18384;48.860;9.188;2022-09-16T00:42:00;10.05;;;4.00;;
31818;SDS011;18384;48.860;9.188;2022-09-16T00:47:49;7.68;;;4.03;;
31818;SDS011;18384;48.860;9.188;2022-09-16T00:50:30;8.18;;;4.05;;
31818;SDS011;18384;48.860;9.188;2022-09-16T00:53:06;7.68;;;3.65;;
31818;SDS011;18384;48.860;9.188;2022-09-16T00:55:39;5.82;;;4.07;;
31818;SDS011;18384;48.860;9.188;2022-09-16T00:58:18;6.30;;;3.90;;
31818;SDS011;18384;48.860;9.188;2022-09-16T01:01:11;6.22;;;3.60;;
31818;SDS011;18384;48.860;9.188;2022-09-16T01:06:11;6.93;;;3.75;;
31818;SDS011;18384;48.860;9.188;2022-09-16T01:08:42;10.55;;;4.28;;
31818;SDS011;18384;48.860;9.188;2022-09-16T01:11:10;9.07;;;4.10;;
31818;SDS011;18384;48.860;9.188;2022-09-16T01:13:37;10.10;;;4.30;;
31818;SDS011;18384;48.860;9.188;2022-09-16T01:16:16;7.95;;;4.45;;
31818;SDS011;18384;48.860;9.188;2022-09-16T01:18:59;8.85;;;4.15;;
31818;SDS011;18384;48.860;9.188;2022-09-16T01:29:59;7.78;;;4.25;;
31818;SDS011;18384;48.860;9.188;2022-09-16T01:40:25;7.15;;;3.90;;
31818;SDS011;18384;48.860;9.188;2022-09-16T01:43:04;7.03;;;3.80;;
31818;SDS011;18384;48.860;9.188;2022-09-16T01:46:44;7.80;;;4.00;;
31818;SDS011;18384;48.860;9.188;2022-09-16T01:54:08;11.52;;;4.00;;
31818;SDS011;18384;48.860;9.188;2022-09-16T01:57:12;10.70;;;4.10;;
31818;SDS011;18384;48.860;9.188;2022-09-16T01:59:56;9.68;;;4.30;;
31818;SDS011;18384;48.860;9.188;2022-09-16T02:02:40;8.68;;;4.20;;
31818;SDS011;18384;48.860;9.188;2022-09-16T02:05:19;7.82;;;4.35;;
31818;SDS011;18384;48.860;9.188;2022-09-16T02:08:43;9.23;;;3.65;;
31818;SDS011;18384;48.860;9.188;2022-09-16T02:11:15;6.85;;;4.00;;
31818;SDS011;18384;48.860;9.188;2022-09-16T02:13:47;7.20;;;3.83;;
31818;SDS011;18384;48.860;9.188;2022-09-16T02:16:24;6.95;;;3.60;;
31818;SDS011;18384;48.860;9.188;2022-09-16T02:19:05;9.80;;;3.15;;
31818;SDS011;18384;48.860;9.188;2022-09-16T02:21:36;5.30;;;3.45;;
31818;SDS011;18384;48.860;9.188;2022-09-16T02:24:07;7.43;;;3.80;;
31818;SDS011;18384;48.860;9.188;2022-09-16T02:26:40;7.35;;;3.45;;
31818;SDS011;18384;48.860;9.188;2022-09-16T02:29:12;10.85;;;3.60;;
31818;SDS011;18384;48.860;9.188;2022-09-16T02:31:43;9.65;;;3.35;;
31818;SDS011;18384;48.860;9.188;2022-09-16T02:34:15;9.93;;;3.60;;
31818;SDS011;18384;48.860;9.188;2022-09-16T02:36:48;6.35;;;3.45;;
31818;SDS011;18384;48.860;9.188;2022-09-16T02:39:19;10.65;;;3.62;;
31818;SDS011;18384;48.860;9.188;2022-09-16T02:41:53;7.55;;;3.25;;
31818;SDS011;18384;48.860;9.188;2022-09-16T02:44:21;9.75;;;3.40;;
31818;SDS011;18384;48.860;9.188;2022-09-16T02:46:57;6.15;;;2.80;;
31818;SDS011;18384;48.860;9.188;2022-09-16T02:49:38;8.30;;;3.15;;
31818;SDS011;18384;48.860;9.188;2022-09-16T02:52:34;10.18;;;3.35;;
31818;SDS011;18384;48.860;9.188;2022-09-16T02:55:33;6.00;;;3.25;;
31818;SDS011;18384;48.860;9.188;2022-09-16T02:59:02;7.43;;;3.12;;
31818;SDS011;18384;48.860;9.188;2022-09-16T03:01:30;12.32;;;4.15;;
31818;SDS011;18384;48.860;9.188;2022-09-16T03:04:02;8.13;;;3.30;;
31818;SDS011;18384;48.860;9.188;2022-09-16T03:06:28;9.18;;;3.33;;
31818;SDS011;18384;48.860;9.188;2022-09-16T03:09:00;8.50;;;3.37;;
31818;SDS011;18384;48.860;9.188;2022-09-16T03:11:38;8.05;;;2.80;;
31818;SDS011;18384;48.860;9.188;2022-09-16T03:27:00;7.43;;;2.83;;
31818;SDS011;18384;48.860;9.188;2022-09-16T03:29:52;5.78;;;2.67;;
31818;SDS011;18384;48.860;9.188;2022-09-16T03:32:39;7.85;;;3.33;;
31818;SDS011;18384;48.860;9.188;2022-09-16T03:35:26;6.57;;;3.20;;
31818;SDS011;18384;48.860;9.188;2022-09-16T03:38:01;5.40;;;2.67;;
31818;SDS011;18384;48.860;9.188;2022-09-16T03:40:28;6.03;;;2.75;;
31818;SDS011;18384;48.860;9.188;2022-09-16T03:42:57;12.00;;;3.10;;
31818;SDS011;18384;48.860;9.188;2022-09-16T03:45:23;12.43;;;3.35;;
31818;SDS011;18384;48.860;9.188;2022-09-16T03:47:50;6.55;;;2.97;;
31818;SDS011;18384;48.860;9.188;2022-09-16T03:50:18;6.47;;;2.85;;
31818;SDS011;18384;48.860;9.188;2022-09-16T03:52:45;6.80;;;2.85;;
31818;SDS011;18384;48.860;9.188;2022-09-16T03:57:37;7.97;;;2.80;;
31818;SDS011;18384;48.860;9.188;2022-09-16T04:00:04;6.28;;;3.08;;
31818;SDS011;18384;48.860;9.188;2022-09-16T04:02:32;6.47;;;3.00;;
31818;SDS011;18384;48.860;9.188;2022-09-16T04:04:59;11.07;;;3.10;;
31818;SDS011;18384;48.860;9.188;2022-09-16T04:07:25;5.65;;;3.10;;
31818;SDS011;18384;48.860;9.188;2022-09-16T04:09:52;9.00;;;2.83;;
31818;SDS011;18384;48.860;9.188;2022-09-16T04:12:18;12.85;;;2.85;;
31818;SDS011;18384;48.860;9.188;2022-09-16T04:14:44;6.28;;;3.03;;
31818;SDS011;18384;48.860;9.188;2022-09-16T04:17:10;9.30;;;2.85;;
31818;SDS011;18384;48.860;9.188;2022-09-16T04:19:36;13.00;;;3.00;;
31818;SDS011;18384;48.860;9.188;2022-09-16T04:22:02;7.10;;;3.22;;
31818;SDS011;18384;48.860;9.188;2022-09-16T04:24:28;11.25;;;2.90;;
31818;SDS011;18384;48.860;9.188;2022-09-16T04:26:55;10.48;;;4.87;;
31818;SDS011;18384;48.860;9.188;2022-09-16T04:29:21;9.30;;;3.28;;
31818;SDS011;18384;48.860;9.188;2022-09-16T04:31:47;12.05;;;3.58;;
31818;SDS011;18384;48.860;9.188;2022-09-16T04:34:13;5.57;;;3.15;;
31818;SDS011;18384;48.860;9.188;2022-09-16T04:36:39;8.13;;;3.15;;
31818;SDS011;18384;48.860;9.188;2022-09-16T04:39:05;7.72;;;2.83;;
31818;SDS011;18384;48.860;9.188;2022-09-16T04:41:32;10.38;;;3.47;;
31818;SDS011;18384;48.860;9.188;2022-09-16T04:43:58;8.23;;;3.30;;
31818;SDS011;18384;48.860;9.188;2022-09-16T04:46:25;6.75;;;2.95;;
31818;SDS011;18384;48.860;9.188;2022-09-16T04:48:54;7.47;;;3.10;;
31818;SDS011;18384;48.860;9.188;2022-09-16T04:51:21;6.47;;;2.83;;
31818;SDS011;18384;48.860;9.188;2022-09-16T04:53:49;5.80;;;2.90;;
31818;SDS011;18384;48.860;9.188;2022-09-16T04:56:16;6.03;;;3.35;;
31818;SDS011;18384;48.860;9.188;2022-09-16T04:58:46;8.38;;;3.28;;
31818;SDS011;18384;48.860;9.188;2022-09-16T05:01:15;10.77;;;3.33;;
31818;SDS011;18384;48.860;9.188;2022-09-16T05:03:44;8.32;;;3.62;;
31818;SDS011;18384;48.860;9.188;2022-09-16T05:06:13;10.32;;;3.62;;
31818;SDS011;18384;48.860;9.188;2022-09-16T05:08:43;8.32;;;3.35;;
31818;SDS011;18384;48.860;9.188;2022-09-16T05:11:10;7.68;;;3.65;;
31818;SDS011;18384;48.860;9.188;2022-09-16T05:13:48;6.65;;;3.20;;
31818;SDS011;18384;48.860;9.188;2022-09-16T05:16:19;7.20;;;3.22;;
31818;SDS011;18384;48.860;9.188;2022-09-16T05:18:47;9.20;;;3.42;;
31818;SDS011;18384;48.860;9.188;2022-09-16T05:21:16;8.55;;;3.80;;
31818;SDS011;18384;48.860;9.188;2022-09-16T05:23:44;10.77;;;3.83;;
31818;SDS011;18384;48.860;9.188;2022-09-16T05:26:12;8.05;;;3.65;;
31818;SDS011;18384;48.860;9.188;2022-09-16T05:28:50;6.87;;;3.50;;
31818;SDS011;18384;48.860;9.188;2022-09-16T05:31:21;9.20;;;3.20;;
31818;SDS011;18384;48.860;9.188;2022-09-16T05:33:54;10.82;;;4.25;;
31818;SDS011;18384;48.860;9.188;2022-09-16T05:36:26;9.63;;;3.53;;
31818;SDS011;18384;48.860;9.188;2022-09-16T05:38:54;10.55;;;4.97;;
31818;SDS011;18384;48.860;9.188;2022-09-16T05:41:21;10.00;;;3.40;;
31818;SDS011;18384;48.860;9.188;2022-09-16T05:43:47;9.73;;;3.30;;
31818;SDS011;18384;48.860;9.188;2022-09-16T05:46:17;9.43;;;3.65;;
31818;SDS011;18384;48.860;9.188;2022-09-16T05:48:46;10.02;;;3.15;;
31818;SDS011;18384;48.860;9.188;2022-09-16T05:51:17;8.57;;;2.90;;
31818;SDS011;18384;48.860;9.188;2022-09-16T05:53:45;10.15;;;3.00;;
31818;SDS011;18384;48.860;9.188;2022-09-16T05:56:14;10.75;;;3.45;;
31818;SDS011;18384;48.860;9.188;2022-09-16T05:58:46;8.85;;;2.83;;
31818;SDS011;18384;48.860;9.188;2022-09-16T06:01:13;8.95;;;3.10;;
31818;SDS011;18384;48.860;9.188;2022-09-16T06:03:44;9.27;;;2.58;;
31818;SDS011;18384;48.860;9.188;2022-09-16T06:06:34;6.43;;;2.60;;
31818;SDS011;18384;48.860;9.188;2022-09-16T06:09:04;12.85;;;2.78;;
31818;SDS011;18384;48.860;9.188;2022-09-16T06:11:38;7.37;;;2.50;;
31818;SDS011;18384;48.860;9.188;2022-09-16T06:14:10;10.95;;;2.78;;
31818;SDS011;18384;48.860;9.188;2022-09-16T06:16:38;11.85;;;2.70;;
31818;SDS011;18384;48.860;9.188;2022-09-16T06:19:05;7.47;;;2.67;;
31818;SDS011;18384;48.860;9.188;2022-09-16T06:21:39;6.18;;;2.20;;
31818;SDS011;18384;48.860;9.188;2022-09-16T06:24:07;9.65;;;2.60;;
31818;SDS011;18384;48.860;9.188;2022-09-16T06:26:36;8.90;;;2.78;;
31818;SDS011;18384;48.860;9.188;2022-09-16T06:29:04;11.77;;;2.78;;
31818;SDS011;18384;48.860;9.188;2022-09-16T06:31:31;7.72;;;2.58;;
31818;SDS011;18384;48.860;9.188;2022-09-16T06:33:58;9.60;;;3.05;;
31818;SDS011;18384;48.860;9.188;2022-09-16T06:38:53;5.05;;;2.78;;
31818;SDS011;18384;48.860;9.188;2022-09-16T06:41:19;7.30;;;2.60;;
31818;SDS011;18384;48.860;9.188;2022-09-16T06:43:47;7.20;;;2.45;;
31818;SDS011;18384;48.860;9.188;2022-09-16T06:46:16;7.87;;;2.80;;
31818;SDS011;18384;48.860;9.188;2022-09-16T06:48:49;5.82;;;2.62;;
31818;SDS011;18384;48.860;9.188;2022-09-16T06:51:22;11.48;;;2.65;;
31818;SDS011;18384;48.860;9.188;2022-09-16T06:53:51;9.15;;;3.25;;
31818;SDS011;18384;48.860;9.188;2022-09-16T06:56:21;6.40;;;2.42;;
31818;SDS011;18384;48.860;9.188;2022-09-16T06:58:48;11.23;;;2.90;;
31818;SDS011;18384;48.860;9.188;2022-09-16T07:01:21;9.75;;;2.85;;
31818;SDS011;18384;48.860;9.188;2022-09-16T07:03:51;13.62;;;3.50;;
31818;SDS011;18384;48.860;9.188;2022-09-16T07:06:19;5.75;;;2.70;;
31818;SDS011;18384;48.860;9.188;2022-09-16T07:08:47;6.90;;;2.92;;
31818;SDS011;18384;48.860;9.188;2022-09-16T07:11:14;11.88;;;3.37;;
31818;SDS011;18384;48.860;9.188;2022-09-16T07:13:43;6.78;;;2.60;;
31818;SDS011;18384;48.860;9.188;2022-09-16T07:16:12;10.43;;;2.97;;
31818;SDS011;18384;48.860;9.188;2022-09-16T07:18:41;7.68;;;3.22;;
31818;SDS011;18384;48.860;9.188;2022-09-16T07:21:09;11.88;;;3.30;;
31818;SDS011;18384;48.860;9.188;2022-09-16T07:23:42;5.75;;;3.10;;
31818;SDS011;18384;48.860;9.188;2022-09-16T07:26:10;12.02;;;3.90;;
31818;SDS011;18384;48.860;9.188;2022-09-16T07:28:43;9.68;;;3.00;;
31818;SDS011;18384;48.860;9.188;2022-09-16T07:31:19;15.27;;;4.35;;
31818;SDS011;18384;48.860;9.188;2022-09-16T07:33:51;9.65;;;3.33;;
31818;SDS011;18384;48.860;9.188;2022-09-16T07:36:21;8.43;;;3.40;;
31818;SDS011;18384;48.860;9.188;2022-09-16T07:38:50;11.90;;;2.80;;
31818;SDS011;18384;48.860;9.188;2022-09-16T07:41:17;11.70;;;3.40;;
31818;SDS011;18384;48.860;9.188;2022-09-16T07:43:46;7.47;;;2.92;;
31818;SDS011;18384;48.860;9.188;2022-09-16T07:46:14;7.15;;;3.00;;
31818;SDS011;18384;48.860;9.188;2022-09-16T07:48:42;8.38;;;2.83;;
31818;SDS011;18384;48.860;9.188;2022-09-16T07:51:10;8.10;;;2.78;;
31818;SDS011;18384;48.860;9.188;2022-09-16T07:53:52;5.87;;;2.78;;
31818;SDS011;18384;48.860;9.188;2022-09-16T07:56:20;6.45;;;2.80;;
31818;SDS011;18384;48.860;9.188;2022-09-16T07:58:50;7.43;;;2.80;;
31818;SDS011;18384;48.860;9.188;2022-09-16T08:01:18;6.62;;;2.90;;
31818;SDS011;18384;48.860;9.188;2022-09-16T08:03:46;10.13;;;2.78;;
31818;SDS011;18384;48.860;9.188;2022-09-16T08:06:13;7.68;;;3.70;;
31818;SDS011;18384;48.860;9.188;2022-09-16T08:08:42;7.05;;;3.87;;
31818;SDS011;18384;48.860;9.188;2022-09-16T08:11:11;8.38;;;3.42;;
31818;SDS011;18384;48.860;9.188;2022-09-16T08:13:38;5.55;;;3.05;;
31818;SDS011;18384;48.860;9.188;2022-09-16T08:16:16;6.87;;;3.45;;
31818;SDS011;18384;48.860;9.188;2022-09-16T08:18:46;8.40;;;3.90;;
31818;SDS011;18384;48.860;9.188;2022-09-16T08:21:18;9.25;;;3.65;;
31818;SDS011;18384;48.860;9.188;2022-09-16T08:23:47;9.68;;;3.50;;
31818;SDS011;18384;48.860;9.188;2022-09-16T08:26:13;5.43;;;3.22;;
31818;SDS011;18384;48.860;9.188;2022-09-16T08:28:42;9.63;;;3.67;;
31818;SDS011;18384;48.860;9.188;2022-09-16T08:31:10;11.60;;;4.15;;
31818;SDS011;18384;48.860;9.188;2022-09-16T08:33:37;6.37;;;3.72;;
31818;SDS011;18384;48.860;9.188;2022-09-16T08:36:05;9.02;;;3.87;;
31818;SDS011;18384;48.860;9.188;2022-09-16T08:38:44;7.43;;;3.00;;
31818;SDS011;18384;48.860;9.188;2022-09-16T08:42:38;9.00;;;3.53;;
31818;SDS011;18384;48.860;9.188;2022-09-16T08:46:06;6.80;;;3.20;;
31818;SDS011;18384;48.860;9.188;2022-09-16T08:48:50;7.95;;;2.65;;
31818;SDS011;18384;48.860;9.188;2022-09-16T08:51:43;5.72;;;2.40;;
31818;SDS011;18384;48.860;9.188;2022-09-16T08:54:11;5.62;;;2.25;;
31818;SDS011;18384;48.860;9.188;2022-09-16T08:56:49;6.70;;;2.37;;
31818;SDS011;18384;48.860;9.188;2022-09-16T08:59:17;13.68;;;3.47;;
31818;SDS011;18384;48.860;9.188;2022-09-16T09:01:57;9.05;;;3.20;;
31818;SDS011;18384;48.860;9.188;2022-09-16T09:04:45;9.82;;;3.50;;
31818;SDS011;18384;48.860;9.188;2022-09-16T09:07:16;6.80;;;2.70;;
31818;SDS011;18384;48.860;9.188;2022-09-16T09:10:14;6.20;;;2.80;;
31818;SDS011;18384;48.860;9.188;2022-09-16T09:13:15;7.12;;;3.00;;
31818;SDS011;18384;48.860;9.188;2022-09-16T09:16:20;8.25;;;2.50;;
31818;SDS011;18384;48.860;9.188;2022-09-16T09:27:16;6.47;;;3.42;;
31818;SDS011;18384;48.860;9.188;2022-09-16T09:30:28;11.90;;;4.90;;
31818;SDS011;18384;48.860;9.188;2022-09-16T09:33:01;9.32;;;4.18;;
31818;SDS011;18384;48.860;9.188;2022-09-16T09:35:58;8.00;;;3.12;;
31818;SDS011;18384;48.860;9.188;2022-09-16T09:55:16;13.48;;;4.22;;
31818;SDS011;18384;48.860;9.188;2022-09-16T09:57:50;11.35;;;5.82;;
31818;SDS011;18384;48.860;9.188;2022-09-16T10:03:03;6.50;;;3.17;;
31818;SDS011;18384;48.860;9.188;2022-09-16T10:05:42;8.48;;;3.37;;
31818;SDS011;18384;48.860;9.188;2022-09-16T10:08:16;11.32;;;3.25;;
31818;SDS011;18384;48.860;9.188;2022-09-16T10:10:56;5.35;;;2.85;;
31818;SDS011;18384;48.860;9.188;2022-09-16T10:13:26;5.87;;;2.75;;
31818;SDS011;18384;48.860;9.188;2022-09-16T10:16:05;7.43;;;2.50;;
31818;SDS011;18384;48.860;9.188;2022-09-16T10:18:37;6.60;;;2.60;;
31818;SDS011;18384;48.860;9.188;2022-09-16T10:21:05;5.80;;;2.42;;
31818;SDS011;18384;48.860;9.188;2022-09-16T10:23:40;4.47;;;2.45;;
31818;SDS011;18384;48.860;9.188;2022-09-16T10:26:21;9.68;;;2.37;;
31818;SDS011;18384;48.860;9.188;2022-09-16T10:28:53;5.30;;;2.40;;
31818;SDS011;18384;48.860;9.188;2022-09-16T10:31:43;7.57;;;2.70;;
31818;SDS011;18384;48.860;9.188;2022-09-16T10:34:25;9.60;;;3.25;;
31818;SDS011;18384;48.860;9.188;2022-09-16T10:39:53;8.32;;;2.60;;
31818;SDS011;18384;48.860;9.188;2022-09-16T10:42:24;6.55;;;2.45;;
31818;SDS011;18384;48.860;9.188;2022-09-16T10:44:54;5.43;;;2.58;;
31818;SDS011;18384;48.860;9.188;2022-09-16T10:47:34;4.75;;;2.55;;
31818;SDS011;18384;48.860;9.188;2022-09-16T10:50:02;6.87;;;2.70;;
31818;SDS011;18384;48.860;9.188;2022-09-16T10:52:31;8.60;;;3.17;;
31818;SDS011;18384;48.860;9.188;2022-09-16T10:55:20;7.87;;;2.65;;
31818;SDS011;18384;48.860;9.188;2022-09-16T10:57:51;7.95;;;2.50;;
31818;SDS011;18384;48.860;9.188;2022-09-16T11:00:29;7.07;;;2.80;;
31818;SDS011;18384;48.860;9.188;2022-09-16T11:06:33;8.88;;;2.80;;
31818;SDS011;18384;48.860;9.188;2022-09-16T11:09:34;9.23;;;2.70;;
31818;SDS011;18384;48.860;9.188;2022-09-16T11:12:59;9.70;;;2.47;;
31818;SDS011;18384;48.860;9.188;2022-09-16T11:18:35;7.75;;;2.47;;
31818;SDS011;18384;48.860;9.188;2022-09-16T11:28:04;10.65;;;2.75;;
31818;SDS011;18384;48.860;9.188;2022-09-16T11:32:13;3.58;;;1.90;;
31818;SDS011;18384;48.860;9.188;2022-09-16T11:41:52;11.95;;;2.28;;
31818;SDS011;18384;48.860;9.188;2022-09-16T11:44:41;8.07;;;2.75;;
31818;SDS011;18384;48.860;9.188;2022-09-16T11:54:48;10.43;;;2.78;;
31818;SDS011;18384;48.860;9.188;2022-09-16T11:59:17;8.45;;;1.77;;
31818;SDS011;18384;48.860;9.188;2022-09-16T12:02:01;4.95;;;2.30;;
31818;SDS011;18384;48.860;9.188;2022-09-16T12:04:56;9.02;;;2.60;;
31818;SDS011;18384;48.860;9.188;2022-09-16T12:13:22;7.47;;;2.25;;
31818;SDS011;18384;48.860;9.188;2022-09-16T12:16:08;3.85;;;1.25;;
31818;SDS011;18384;48.860;9.188;2022-09-16T12:19:02;3.33;;;1.35;;
31818;SDS011;18384;48.860;9.188;2022-09-16T12:22:09;6.20;;;1.73;;
31818;SDS011;18384;48.860;9.188;2022-09-16T12:25:24;4.43;;;1.73;;
31818;SDS011;18384;48.860;9.188;2022-09-16T12:27:59;5.32;;;1.95;;
31818;SDS011;18384;48.860;9.188;2022-09-16T12:33:58;5.20;;;1.40;;
31818;SDS011;18384;48.860;9.188;2022-09-16T12:36:44;9.85;;;1.60;;
31818;SDS011;18384;48.860;9.188;2022-09-16T12:39:16;3.10;;;1.45;;
31818;SDS011;18384;48.860;9.188;2022-09-16T13:03:40;6.72;;;0.98;;
31818;SDS011;18384;48.860;9.188;2022-09-16T13:06:54;7.07;;;1.67;;
31818;SDS011;18384;48.860;9.188;2022-09-16T13:09:28;7.93;;;1.10;;
31818;SDS011;18384;48.860;9.188;2022-09-16T13:12:16;3.67;;;1.30;;
31818;SDS011;18384;48.860;9.188;2022-09-16T13:14:52;4.90;;;1.25;;
31818;SDS011;18384;48.860;9.188;2022-09-16T13:17:31;5.28;;;1.12;;
31818;SDS011;18384;48.860;9.188;2022-09-16T13:20:16;5.37;;;1.02;;
31818;SDS011;18384;48.860;9.188;2022-09-16T13:23:01;6.35;;;1.35;;
31818;SDS011;18384;48.860;9.188;2022-09-16T13:25:47;3.45;;;0.98;;
31818;SDS011;18384;48.860;9.188;2022-09-16T13:28:41;5.05;;;1.37;;
31818;SDS011;18384;48.860;9.188;2022-09-16T13:31:19;6.75;;;1.40;;
31818;SDS011;18384;48.860;9.188;2022-09-16T13:34:02;3.28;;;1.10;;
31818;SDS011;18384;48.860;9.188;2022-09-16T13:36:41;8.20;;;1.50;;
31818;SDS011;18384;48.860;9.188;2022-09-16T13:39:11;6.05;;;1.23;;
31818;SDS011;18384;48.860;9.188;2022-09-16T13:41:41;8.23;;;1.65;;
31818;SDS011;18384;48.860;9.188;2022-09-16T13:47:16;20.00;;;1.85;;
31818;SDS011;18384;48.860;9.188;2022-09-16T13:49:59;5.55;;;1.35;;
31818;SDS011;18384;48.860;9.188;2022-09-16T13:52:36;8.05;;;1.85;;
31818;SDS011;18384;48.860;9.188;2022-09-16T13:55:04;9.30;;;1.70;;
31818;SDS011;18384;48.860;9.188;2022-09-16T13:57:57;3.55;;;1.30;;
31818;SDS011;18384;48.860;9.188;2022-09-16T14:01:09;4.65;;;1.52;;
31818;SDS011;18384;48.860;9.188;2022-09-16T14:15:47;2.87;;;1.12;;
31818;SDS011;18384;48.860;9.188;2022-09-16T14:18:21;8.38;;;1.60;;
31818;SDS011;18384;48.860;9.188;2022-09-16T14:26:52;6.22;;;1.23;;
31818;SDS011;18384;48.860;9.188;2022-09-16T14:29:21;5.85;;;1.50;;
31818;SDS011;18384;48.860;9.188;2022-09-16T14:31:51;4.62;;;0.95;;
31818;SDS011;18384;48.860;9.188;2022-09-16T14:37:06;7.25;;;1.50;;
31818;SDS011;18384;48.860;9.188;2022-09-16T14:39:32;10.05;;;1.62;;
31818;SDS011;18384;48.860;9.188;2022-09-16T14:42:11;16.05;;;1.58;;
31818;SDS011;18384;48.860;9.188;2022-09-16T14:44:52;4.20;;;1.17;;
31818;SDS011;18384;48.860;9.188;2022-09-16T14:47:29;4.57;;;1.37;;
31818;SDS011;18384;48.860;9.188;2022-09-16T14:50:02;6.97;;;1.30;;
31818;SDS011;18384;48.860;9.188;2022-09-16T14:52:38;6.40;;;1.20;;
31818;SDS011;18384;48.860;9.188;2022-09-16T14:57:44;12.63;;;1.25;;
31818;SDS011;18384;48.860;9.188;2022-09-16T15:00:12;4.78;;;1.20;;
31818;SDS011;18384;48.860;9.188;2022-09-16T15:02:51;4.45;;;2.03;;
31818;SDS011;18384;48.860;9.188;2022-09-16T15:05:43;5.40;;;1.48;;
31818;SDS011;18384;48.860;9.188;2022-09-16T15:08:24;5.05;;;1.30;;
31818;SDS011;18384;48.860;9.188;2022-09-16T15:11:18;3.78;;;1.00;;
31818;SDS011;18384;48.860;9.188;2022-09-16T15:13:50;9.73;;;1.60;;
31818;SDS011;18384;48.860;9.188;2022-09-16T15:16:18;5.05;;;1.35;;
31818;SDS011;18384;48.860;9.188;2022-09-16T15:18:59;4.68;;;1.40;;
31818;SDS011;18384;48.860;9.188;2022-09-16T15:21:34;7.85;;;1.17;;
31818;SDS011;18384;48.860;9.188;2022-09-16T15:24:03;7.55;;;1.10;;
31818;SDS011;18384;48.860;9.188;2022-09-16T15:26:40;6.50;;;1.58;;
31818;SDS011;18384;48.860;9.188;2022-09-16T15:32:20;8.10;;;1.45;;
31818;SDS011;18384;48.860;9.188;2022-09-16T15:35:00;8.43;;;1.70;;
31818;SDS011;18384;48.860;9.188;2022-09-16T15:38:09;5.18;;;1.60;;
31818;SDS011;18384;48.860;9.188;2022-09-16T15:40:37;10.07;;;2.90;;
31818;SDS011;18384;48.860;9.188;2022-09-16T15:46:16;4.60;;;1.60;;
31818;SDS011;18384;48.860;9.188;2022-09-16T15:48:57;5.20;;;1.25;;
31818;SDS011;18384;48.860;9.188;2022-09-16T15:51:32;3.92;;;1.50;;
31818;SDS011;18384;48.860;9.188;2022-09-16T15:54:55;6.30;;;1.42;;
31818;SDS011;18384;48.860;9.188;2022-09-16T15:57:30;4.95;;;1.60;;
31818;SDS011;18384;48.860;9.188;2022-09-16T16:00:05;6.78;;;1.35;;
31818;SDS011;18384;48.860;9.188;2022-09-16T16:07:00;8.30;;;1.73;;
31818;SDS011;18384;48.860;9.188;2022-09-16T16:09:34;4.22;;;1.20;;
31818;SDS011;18384;48.860;9.188;2022-09-16T16:12:08;6.68;;;1.35;;
31818;SDS011;18384;48.860;9.188;2022-09-16T16:14:42;7.87;;;1.15;;
31818;SDS011;18384;48.860;9.188;2022-09-16T16:17:14;5.03;;;1.35;;
31818;SDS011;18384;48.860;9.188;2022-09-16T16:19:48;5.47;;;1.48;;
31818;SDS011;18384;48.860;9.188;2022-09-16T16:22:15;4.25;;;1.70;;
31818;SDS011;18384;48.860;9.188;2022-09-16T16:24:41;6.25;;;1.65;;
31818;SDS011;18384;48.860;9.188;2022-09-16T16:27:07;4.70;;;1.62;;
31818;SDS011;18384;48.860;9.188;2022-09-16T16:29:34;5.10;;;1.45;;
31818;SDS011;18384;48.860;9.188;2022-09-16T16:32:12;2.78;;;1.17;;
31818;SDS011;18384;48.860;9.188;2022-09-16T16:34:41;8.43;;;1.80;;
31818;SDS011;18384;48.860;9.188;2022-09-16T16:37:14;5.18;;;1.20;;
31818;SDS011;18384;48.860;9.188;2022-09-16T16:39:42;5.00;;;1.40;;
31818;SDS011;18384;48.860;9.188;2022-09-16T16:42:12;6.65;;;1.10;;
31818;SDS011;18384;48.860;9.188;2022-09-16T16:44:40;4.85;;;1.20;;
31818;SDS011;18384;48.860;9.188;2022-09-16T16:49:33;6.72;;;1.58;;
31818;SDS011;18384;48.860;9.188;2022-09-16T16:51:59;4.87;;;1.73;;
31818;SDS011;18384;48.860;9.188;2022-09-16T16:56:52;8.57;;;1.73;;
31818;SDS011;18384;48.860;9.188;2022-09-16T16:59:19;9.10;;;1.30;;
31818;SDS011;18384;48.860;9.188;2022-09-16T17:01:48;3.90;;;1.17;;
31818;SDS011;18384;48.860;9.188;2022-09-16T17:04:17;5.05;;;1.30;;
31818;SDS011;18384;48.860;9.188;2022-09-16T17:06:43;3.03;;;1.35;;
31818;SDS011;18384;48.860;9.188;2022-09-16T17:11:36;5.30;;;1.50;;
31818;SDS011;18384;48.860;9.188;2022-09-16T17:14:15;6.03;;;1.33;;
31818;SDS011;18384;48.860;9.188;2022-09-16T17:16:41;3.87;;;0.93;;
31818;SDS011;18384;48.860;9.188;2022-09-16T17:19:08;2.85;;;1.00;;
31818;SDS011;18384;48.860;9.188;2022-09-16T17:21:34;2.58;;;0.75;;
31818;SDS011;18384;48.860;9.188;2022-09-16T17:24:01;1.77;;;0.60;;
31818;SDS011;18384;48.860;9.188;2022-09-16T17:26:28;3.72;;;0.90;;
31818;SDS011;18384;48.860;9.188;2022-09-16T17:28:54;1.42;;;0.60;;
31818;SDS011;18384;48.860;9.188;2022-09-16T17:31:27;3.00;;;0.43;;
31818;SDS011;18384;48.860;9.188;2022-09-16T17:33:56;4.37;;;0.95;;
31818;SDS011;18384;48.860;9.188;2022-09-16T17:36:33;1.95;;;0.68;;
31818;SDS011;18384;48.860;9.188;2022-09-16T17:39:09;2.35;;;0.82;;
31818;SDS011;18384;48.860;9.188;2022-09-16T17:41:45;5.45;;;1.02;;
31818;SDS011;18384;48.860;9.188;2022-09-16T17:44:13;4.25;;;1.17;;
31818;SDS011;18384;48.860;9.188;2022-09-16T17:46:41;5.12;;;1.00;;
31818;SDS011;18384;48.860;9.188;2022-09-16T17:49:15;3.45;;;1.10;;
31818;SDS011;18384;48.860;9.188;2022-09-16T17:51:44;4.07;;;0.70;;
31818;SDS011;18384;48.860;9.188;2022-09-16T17:54:11;4.30;;;1.00;;
31818;SDS011;18384;48.860;9.188;2022-09-16T17:56:37;4.07;;;1.27;;
31818;SDS011;18384;48.860;9.188;2022-09-16T17:59:06;2.72;;;1.02;;
31818;SDS011;18384;48.860;9.188;2022-09-16T18:01:34;3.72;;;1.02;;
31818;SDS011;18384;48.860;9.188;2022-09-16T18:04:00;4.20;;;1.10;;
31818;SDS011;18384;48.860;9.188;2022-09-16T18:06:28;8.40;;;2.33;;
31818;SDS011;18384;48.860;9.188;2022-09-16T18:09:03;6.82;;;2.25;;
31818;SDS011;18384;48.860;9.188;2022-09-16T18:11:31;5.37;;;1.60;;
31818;SDS011;18384;48.860;9.188;2022-09-16T18:13:59;4.53;;;1.50;;
31818;SDS011;18384;48.860;9.188;2022-09-16T18:16:27;7.30;;;1.75;;
31818;SDS011;18384;48.860;9.188;2022-09-16T18:18:55;4.82;;;1.10;;
31818;SDS011;18384;48.860;9.188;2022-09-16T18:21:23;1.80;;;0.88;;
31818;SDS011;18384;48.860;9.188;2022-09-16T18:23:52;3.80;;;1.30;;
31818;SDS011;18384;48.860;9.188;2022-09-16T18:26:23;4.32;;;1.30;;
31818;SDS011;18384;48.860;9.188;2022-09-16T18:28:50;4.22;;;1.27;;
31818;SDS011;18384;48.860;9.188;2022-09-16T18:31:19;1.80;;;0.93;;